sensor_id;sensor_type;location;lat;lon;timestamp;P1;durP1;ratioP1;P2;durP2;ratioP2
7110;SDS011;3597;42.650;23.386;2022-07-26T00:01:31;11.43;;;11.07;;
7110;SDS011;3597;42.650;23.386;2022-07-26T00:03:56;12.90;;;12.50;;
7110;SDS011;3597;42.650;23.386;2022-07-26T00:06:22;13.17;;;12.67;;
7110;SDS011;3597;42.650;23.386;2022-07-26T00:08:47;13.80;;;13.40;;
7110;SDS011;3597;42.650;23.386;2022-07-26T00:11:13;15.33;;;14.83;;
7110;SDS011;3597;42.650;23.386;2022-07-26T00:13:38;14.37;;;13.97;;
7110;SDS011;3597;42.650;23.386;2022-07-26T00:16:04;15.93;;;15.43;;
7110;SDS011;3597;42.650;23.386;2022-07-26T00:18:30;16.23;;;15.63;;
7110;SDS011;3597;42.650;23.386;2022-07-26T00:20:55;16.50;;;15.90;;
7110;SDS011;3597;42.650;23.386;2022-07-26T00:23:21;16.30;;;15.77;;
7110;SDS011;3597;42.650;23.386;2022-07-26T00:25:46;16.00;;;15.40;;
7110;SDS011;3597;42.650;23.386;2022-07-26T00:28:11;15.37;;;14.87;;
7110;SDS011;3597;42.650;23.386;2022-07-26T00:30:37;14.50;;;14.07;;
7110;SDS011;3597;42.650;23.386;2022-07-26T00:33:03;13.20;;;12.80;;
7110;SDS011;3597;42.650;23.386;2022-07-26T00:35:28;14.27;;;13.50;;
7110;SDS011;3597;42.650;23.386;2022-07-26T00:37:54;12.87;;;12.47;;
7110;SDS011;3597;42.650;23.386;2022-07-26T00:40:19;10.60;;;10.30;;
7110;SDS011;3597;42.650;23.386;2022-07-26T00:42:45;9.93;;;9.53;;
7110;SDS011;3597;42.650;23.386;2022-07-26T00:45:11;8.20;;;8.00;;
7110;SDS011;3597;42.650;23.386;2022-07-26T00:47:36;7.60;;;7.40;;
7110;SDS011;3597;42.650;23.386;2022-07-26T00:50:03;8.23;;;8.03;;
7110;SDS011;3597;42.650;23.386;2022-07-26T00:52:29;7.40;;;7.20;;
7110;SDS011;3597;42.650;23.386;2022-07-26T00:54:55;7.27;;;7.17;;
7110;SDS011;3597;42.650;23.386;2022-07-26T00:57:21;6.90;;;6.70;;
7110;SDS011;3597;42.650;23.386;2022-07-26T00:59:47;6.43;;;6.33;;
7110;SDS011;3597;42.650;23.386;2022-07-26T01:02:13;6.83;;;6.63;;
7110;SDS011;3597;42.650;23.386;2022-07-26T01:04:39;6.67;;;6.47;;
7110;SDS011;3597;42.650;23.386;2022-07-26T01:07:05;6.23;;;6.13;;
7110;SDS011;3597;42.650;23.386;2022-07-26T01:09:31;6.60;;;6.40;;
7110;SDS011;3597;42.650;23.386;2022-07-26T01:11:56;6.60;;;6.50;;
7110;SDS011;3597;42.650;23.386;2022-07-26T01:14:23;5.57;;;5.47;;
7110;SDS011;3597;42.650;23.386;2022-07-26T01:16:49;6.37;;;6.17;;
7110;SDS011;3597;42.650;23.386;2022-07-26T01:19:15;5.80;;;5.70;;
7110;SDS011;3597;42.650;23.386;2022-07-26T01:21:41;6.17;;;6.03;;
7110;SDS011;3597;42.650;23.386;2022-07-26T01:24:06;5.63;;;5.53;;
7110;SDS011;3597;42.650;23.386;2022-07-26T01:26:32;6.50;;;6.30;;
7110;SDS011;3597;42.650;23.386;2022-07-26T01:28:57;6.40;;;6.20;;
7110;SDS011;3597;42.650;23.386;2022-07-26T01:31:23;6.47;;;6.37;;
7110;SDS011;3597;42.650;23.386;2022-07-26T01:33:49;6.87;;;6.67;;
7110;SDS011;3597;42.650;23.386;2022-07-26T01:36:14;6.80;;;6.60;;
7110;SDS011;3597;42.650;23.386;2022-07-26T01:38:40;7.30;;;7.17;;
7110;SDS011;3597;42.650;23.386;2022-07-26T01:41:05;7.97;;;7.77;;
7110;SDS011;3597;42.650;23.386;2022-07-26T01:43:31;8.73;;;8.53;;
7110;SDS011;3597;42.650;23.386;2022-07-26T01:45:56;9.13;;;8.83;;
7110;SDS011;3597;42.650;23.386;2022-07-26T01:48:22;9.40;;;9.13;;
7110;SDS011;3597;42.650;23.386;2022-07-26T01:50:47;9.33;;;9.10;;
7110;SDS011;3597;42.650;23.386;2022-07-26T01:53:13;9.70;;;9.40;;
7110;SDS011;3597;42.650;23.386;2022-07-26T01:55:38;11.33;;;10.93;;
7110;SDS011;3597;42.650;23.386;2022-07-26T01:58:04;12.57;;;12.17;;
7110;SDS011;3597;42.650;23.386;2022-07-26T02:00:30;14.53;;;14.03;;
7110;SDS011;3597;42.650;23.386;2022-07-26T02:02:55;15.33;;;14.77;;
7110;SDS011;3597;42.650;23.386;2022-07-26T02:05:21;19.23;;;18.53;;
7110;SDS011;3597;42.650;23.386;2022-07-26T02:07:46;21.47;;;20.70;;
7110;SDS011;3597;42.650;23.386;2022-07-26T02:10:12;22.33;;;21.47;;
7110;SDS011;3597;42.650;23.386;2022-07-26T02:12:38;25.47;;;24.47;;
7110;SDS011;3597;42.650;23.386;2022-07-26T02:15:04;27.00;;;25.80;;
7110;SDS011;3597;42.650;23.386;2022-07-26T02:17:30;26.67;;;25.67;;
7110;SDS011;3597;42.650;23.386;2022-07-26T02:19:55;26.43;;;25.40;;
7110;SDS011;3597;42.650;23.386;2022-07-26T02:22:21;27.13;;;26.10;;
7110;SDS011;3597;42.650;23.386;2022-07-26T02:24:47;23.80;;;22.90;;
7110;SDS011;3597;42.650;23.386;2022-07-26T02:27:12;24.10;;;23.13;;
7110;SDS011;3597;42.650;23.386;2022-07-26T02:29:38;21.50;;;20.67;;
7110;SDS011;3597;42.650;23.386;2022-07-26T02:32:04;20.47;;;19.77;;
7110;SDS011;3597;42.650;23.386;2022-07-26T02:34:30;19.27;;;18.57;;
7110;SDS011;3597;42.650;23.386;2022-07-26T02:36:55;19.07;;;18.37;;
7110;SDS011;3597;42.650;23.386;2022-07-26T02:39:21;18.33;;;17.63;;
7110;SDS011;3597;42.650;23.386;2022-07-26T02:41:51;18.13;;;17.43;;
7110;SDS011;3597;42.650;23.386;2022-07-26T02:44:17;17.67;;;16.87;;
7110;SDS011;3597;42.650;23.386;2022-07-26T02:46:43;17.07;;;16.47;;
7110;SDS011;3597;42.650;23.386;2022-07-26T02:49:08;15.90;;;15.37;;
7110;SDS011;3597;42.650;23.386;2022-07-26T02:51:33;15.87;;;15.30;;
7110;SDS011;3597;42.650;23.386;2022-07-26T02:53:59;14.23;;;13.73;;
7110;SDS011;3597;42.650;23.386;2022-07-26T02:56:24;14.20;;;13.73;;
7110;SDS011;3597;42.650;23.386;2022-07-26T02:58:49;13.93;;;13.43;;
7110;SDS011;3597;42.650;23.386;2022-07-26T03:01:14;13.27;;;12.83;;
7110;SDS011;3597;42.650;23.386;2022-07-26T03:03:40;12.47;;;12.03;;
7110;SDS011;3597;42.650;23.386;2022-07-26T03:06:05;12.57;;;12.17;;
7110;SDS011;3597;42.650;23.386;2022-07-26T03:08:31;13.17;;;12.57;;
7110;SDS011;3597;42.650;23.386;2022-07-26T03:10:56;11.17;;;10.87;;
7110;SDS011;3597;42.650;23.386;2022-07-26T03:13:21;11.93;;;11.53;;
7110;SDS011;3597;42.650;23.386;2022-07-26T03:15:47;11.47;;;11.13;;
7110;SDS011;3597;42.650;23.386;2022-07-26T03:18:12;12.27;;;11.77;;
7110;SDS011;3597;42.650;23.386;2022-07-26T03:20:37;12.37;;;11.97;;
7110;SDS011;3597;42.650;23.386;2022-07-26T03:23:03;11.83;;;11.43;;
7110;SDS011;3597;42.650;23.386;2022-07-26T03:25:28;11.67;;;11.27;;
7110;SDS011;3597;42.650;23.386;2022-07-26T03:27:54;10.73;;;10.43;;
7110;SDS011;3597;42.650;23.386;2022-07-26T03:30:21;11.40;;;11.00;;
7110;SDS011;3597;42.650;23.386;2022-07-26T03:32:47;10.20;;;9.90;;
7110;SDS011;3597;42.650;23.386;2022-07-26T03:35:12;9.87;;;9.60;;
7110;SDS011;3597;42.650;23.386;2022-07-26T03:37:38;10.03;;;9.63;;
7110;SDS011;3597;42.650;23.386;2022-07-26T03:40:03;13.50;;;12.90;;
7110;SDS011;3597;42.650;23.386;2022-07-26T03:42:31;12.13;;;11.63;;
7110;SDS011;3597;42.650;23.386;2022-07-26T03:44:57;10.70;;;10.30;;
7110;SDS011;3597;42.650;23.386;2022-07-26T03:47:22;10.80;;;10.50;;
7110;SDS011;3597;42.650;23.386;2022-07-26T03:49:47;10.63;;;10.33;;
7110;SDS011;3597;42.650;23.386;2022-07-26T03:52:12;11.23;;;10.83;;
7110;SDS011;3597;42.650;23.386;2022-07-26T03:54:38;10.50;;;10.13;;
7110;SDS011;3597;42.650;23.386;2022-07-26T03:57:03;10.70;;;10.40;;
7110;SDS011;3597;42.650;23.386;2022-07-26T03:59:29;10.83;;;10.53;;
7110;SDS011;3597;42.650;23.386;2022-07-26T04:01:54;10.73;;;10.43;;
7110;SDS011;3597;42.650;23.386;2022-07-26T04:04:19;9.67;;;9.37;;
7110;SDS011;3597;42.650;23.386;2022-07-26T04:06:45;9.30;;;9.00;;
7110;SDS011;3597;42.650;23.386;2022-07-26T04:09:11;8.57;;;8.27;;
7110;SDS011;3597;42.650;23.386;2022-07-26T04:11:37;14.90;;;14.37;;
7110;SDS011;3597;42.650;23.386;2022-07-26T04:14:04;28.63;;;27.53;;
7110;SDS011;3597;42.650;23.386;2022-07-26T04:16:29;13.17;;;12.67;;
7110;SDS011;3597;42.650;23.386;2022-07-26T04:18:55;13.93;;;13.43;;
7110;SDS011;3597;42.650;23.386;2022-07-26T04:21:20;12.43;;;12.03;;
7110;SDS011;3597;42.650;23.386;2022-07-26T04:23:46;20.43;;;19.67;;
7110;SDS011;3597;42.650;23.386;2022-07-26T04:26:12;22.00;;;21.20;;
7110;SDS011;3597;42.650;23.386;2022-07-26T04:28:38;21.77;;;21.00;;
7110;SDS011;3597;42.650;23.386;2022-07-26T04:31:04;31.97;;;30.63;;
7110;SDS011;3597;42.650;23.386;2022-07-26T04:33:29;55.13;;;52.80;;
7110;SDS011;3597;42.650;23.386;2022-07-26T04:35:55;119.60;;;114.50;;
7110;SDS011;3597;42.650;23.386;2022-07-26T04:38:20;84.40;;;80.60;;
7110;SDS011;3597;42.650;23.386;2022-07-26T04:40:46;28.13;;;26.97;;
7110;SDS011;3597;42.650;23.386;2022-07-26T04:43:13;15.20;;;14.70;;
7110;SDS011;3597;42.650;23.386;2022-07-26T04:45:39;12.03;;;11.63;;
7110;SDS011;3597;42.650;23.386;2022-07-26T04:48:04;11.00;;;10.70;;
7110;SDS011;3597;42.650;23.386;2022-07-26T04:50:30;9.27;;;8.97;;
7110;SDS011;3597;42.650;23.386;2022-07-26T04:52:56;10.47;;;10.07;;
7110;SDS011;3597;42.650;23.386;2022-07-26T04:55:21;11.00;;;10.70;;
7110;SDS011;3597;42.650;23.386;2022-07-26T04:57:47;14.03;;;13.57;;
7110;SDS011;3597;42.650;23.386;2022-07-26T05:00:14;15.17;;;14.67;;
7110;SDS011;3597;42.650;23.386;2022-07-26T05:02:40;20.37;;;19.67;;
7110;SDS011;3597;42.650;23.386;2022-07-26T05:05:06;11.97;;;11.57;;
7110;SDS011;3597;42.650;23.386;2022-07-26T05:08:06;7.00;;;6.80;;
7110;SDS011;3597;42.650;23.386;2022-07-26T05:10:32;12.53;;;12.13;;
7110;SDS011;3597;42.650;23.386;2022-07-26T05:12:59;7.80;;;7.60;;
7110;SDS011;3597;42.650;23.386;2022-07-26T05:15:27;9.70;;;9.40;;
7110;SDS011;3597;42.650;23.386;2022-07-26T05:17:53;9.35;;;9.05;;
7110;SDS011;3597;42.650;23.386;2022-07-26T05:20:21;15.77;;;15.27;;
7110;SDS011;3597;42.650;23.386;2022-07-26T05:22:46;14.48;;;13.98;;
7110;SDS011;3597;42.650;23.386;2022-07-26T05:25:11;12.70;;;12.30;;
7110;SDS011;3597;42.650;23.386;2022-07-26T05:27:37;10.35;;;10.05;;
7110;SDS011;3597;42.650;23.386;2022-07-26T05:30:04;8.57;;;8.38;;
7110;SDS011;3597;42.650;23.386;2022-07-26T05:32:30;6.38;;;6.28;;
7110;SDS011;3597;42.650;23.386;2022-07-26T05:34:55;6.25;;;6.15;;
7110;SDS011;3597;42.650;23.386;2022-07-26T05:37:20;6.20;;;6.10;;
7110;SDS011;3597;42.650;23.386;2022-07-26T05:39:46;6.22;;;6.13;;
7110;SDS011;3597;42.650;23.386;2022-07-26T05:42:11;6.97;;;6.78;;
7110;SDS011;3597;42.650;23.386;2022-07-26T05:44:36;6.68;;;6.57;;
7110;SDS011;3597;42.650;23.386;2022-07-26T05:47:02;6.18;;;6.07;;
7110;SDS011;3597;42.650;23.386;2022-07-26T05:49:27;9.43;;;9.20;;
7110;SDS011;3597;42.650;23.386;2022-07-26T05:51:53;9.70;;;9.50;;
7110;SDS011;3597;42.650;23.386;2022-07-26T05:54:18;11.02;;;10.73;;
7110;SDS011;3597;42.650;23.386;2022-07-26T05:56:45;11.70;;;11.38;;
7110;SDS011;3597;42.650;23.386;2022-07-26T05:59:11;12.15;;;11.85;;
7110;SDS011;3597;42.650;23.386;2022-07-26T06:01:36;11.68;;;11.38;;
7110;SDS011;3597;42.650;23.386;2022-07-26T06:04:02;10.75;;;10.45;;
7110;SDS011;3597;42.650;23.386;2022-07-26T06:06:27;10.85;;;10.55;;
7110;SDS011;3597;42.650;23.386;2022-07-26T06:08:52;10.52;;;10.23;;
7110;SDS011;3597;42.650;23.386;2022-07-26T06:11:18;6.70;;;6.60;;
7110;SDS011;3597;42.650;23.386;2022-07-26T06:13:43;6.43;;;6.22;;
7110;SDS011;3597;42.650;23.386;2022-07-26T06:16:08;7.25;;;7.05;;
7110;SDS011;3597;42.650;23.386;2022-07-26T06:18:34;6.90;;;6.70;;
7110;SDS011;3597;42.650;23.386;2022-07-26T06:20:59;7.95;;;7.72;;
7110;SDS011;3597;42.650;23.386;2022-07-26T06:23:25;7.60;;;7.40;;
7110;SDS011;3597;42.650;23.386;2022-07-26T06:25:50;8.10;;;7.90;;
7110;SDS011;3597;42.650;23.386;2022-07-26T06:28:15;9.10;;;8.90;;
7110;SDS011;3597;42.650;23.386;2022-07-26T06:30:42;10.00;;;9.55;;
7110;SDS011;3597;42.650;23.386;2022-07-26T06:33:08;8.13;;;7.88;;
7110;SDS011;3597;42.650;23.386;2022-07-26T06:35:33;8.68;;;8.45;;
7110;SDS011;3597;42.650;23.386;2022-07-26T06:38:00;10.15;;;9.85;;
7110;SDS011;3597;42.650;23.386;2022-07-26T06:40:25;8.30;;;8.10;;
7110;SDS011;3597;42.650;23.386;2022-07-26T06:42:51;7.13;;;6.93;;
7110;SDS011;3597;42.650;23.386;2022-07-26T06:45:16;7.72;;;7.53;;
7110;SDS011;3597;42.650;23.386;2022-07-26T06:47:41;9.48;;;9.23;;
7110;SDS011;3597;42.650;23.386;2022-07-26T06:50:07;8.13;;;7.93;;
7110;SDS011;3597;42.650;23.386;2022-07-26T06:52:33;6.35;;;6.10;;
7110;SDS011;3597;42.650;23.386;2022-07-26T06:54:58;10.02;;;9.73;;
7110;SDS011;3597;42.650;23.386;2022-07-26T06:57:24;7.75;;;7.55;;
7110;SDS011;3597;42.650;23.386;2022-07-26T06:59:50;7.85;;;7.57;;
7110;SDS011;3597;42.650;23.386;2022-07-26T07:02:15;6.18;;;5.97;;
7110;SDS011;3597;42.650;23.386;2022-07-26T07:04:41;7.40;;;7.13;;
7110;SDS011;3597;42.650;23.386;2022-07-26T07:07:06;5.93;;;5.82;;
7110;SDS011;3597;42.650;23.386;2022-07-26T07:09:33;5.88;;;5.78;;
7110;SDS011;3597;42.650;23.386;2022-07-26T07:11:59;7.47;;;7.28;;
7110;SDS011;3597;42.650;23.386;2022-07-26T07:14:26;7.43;;;7.22;;
7110;SDS011;3597;42.650;23.386;2022-07-26T07:16:52;8.05;;;7.85;;
7110;SDS011;3597;42.650;23.386;2022-07-26T07:19:17;6.10;;;6.00;;
7110;SDS011;3597;42.650;23.386;2022-07-26T07:21:42;5.88;;;5.78;;
7110;SDS011;3597;42.650;23.386;2022-07-26T07:24:08;5.68;;;5.57;;
7110;SDS011;3597;42.650;23.386;2022-07-26T07:26:33;5.80;;;5.70;;
7110;SDS011;3597;42.650;23.386;2022-07-26T07:28:58;6.40;;;6.20;;
7110;SDS011;3597;42.650;23.386;2022-07-26T07:31:24;7.18;;;7.00;;
7110;SDS011;3597;42.650;23.386;2022-07-26T07:33:50;7.40;;;7.22;;
7110;SDS011;3597;42.650;23.386;2022-07-26T07:36:15;8.93;;;8.65;;
7110;SDS011;3597;42.650;23.386;2022-07-26T07:38:41;7.78;;;7.47;;
7110;SDS011;3597;42.650;23.386;2022-07-26T07:41:08;8.82;;;8.52;;
7110;SDS011;3597;42.650;23.386;2022-07-26T07:43:34;9.43;;;9.13;;
7110;SDS011;3597;42.650;23.386;2022-07-26T07:45:59;10.63;;;10.32;;
7110;SDS011;3597;42.650;23.386;2022-07-26T07:48:24;10.35;;;9.98;;
7110;SDS011;3597;42.650;23.386;2022-07-26T07:50:50;9.18;;;8.98;;
7110;SDS011;3597;42.650;23.386;2022-07-26T07:53:15;9.77;;;9.57;;
7110;SDS011;3597;42.650;23.386;2022-07-26T07:55:41;9.30;;;9.00;;
7110;SDS011;3597;42.650;23.386;2022-07-26T07:58:06;10.05;;;9.75;;
7110;SDS011;3597;42.650;23.386;2022-07-26T08:00:31;10.10;;;9.90;;
7110;SDS011;3597;42.650;23.386;2022-07-26T08:02:57;8.90;;;8.68;;
7110;SDS011;3597;42.650;23.386;2022-07-26T08:05:22;6.60;;;6.40;;
7110;SDS011;3597;42.650;23.386;2022-07-26T08:07:48;7.68;;;7.45;;
7110;SDS011;3597;42.650;23.386;2022-07-26T08:10:13;7.03;;;6.93;;
7110;SDS011;3597;42.650;23.386;2022-07-26T08:12:38;6.53;;;6.43;;
7110;SDS011;3597;42.650;23.386;2022-07-26T08:15:04;6.72;;;6.63;;
7110;SDS011;3597;42.650;23.386;2022-07-26T08:17:30;6.60;;;6.45;;
7110;SDS011;3597;42.650;23.386;2022-07-26T08:19:55;6.90;;;6.80;;
7110;SDS011;3597;42.650;23.386;2022-07-26T08:22:21;6.85;;;6.65;;
7110;SDS011;3597;42.650;23.386;2022-07-26T08:24:46;7.00;;;6.80;;
7110;SDS011;3597;42.650;23.386;2022-07-26T08:27:12;6.25;;;6.15;;
7110;SDS011;3597;42.650;23.386;2022-07-26T08:29:38;6.63;;;6.43;;
7110;SDS011;3597;42.650;23.386;2022-07-26T08:32:03;6.38;;;6.28;;
7110;SDS011;3597;42.650;23.386;2022-07-26T08:34:29;7.20;;;7.00;;
7110;SDS011;3597;42.650;23.386;2022-07-26T08:36:55;7.88;;;7.68;;
7110;SDS011;3597;42.650;23.386;2022-07-26T08:39:20;7.35;;;7.25;;
7110;SDS011;3597;42.650;23.386;2022-07-26T08:41:45;5.75;;;5.65;;
7110;SDS011;3597;42.650;23.386;2022-07-26T08:44:11;5.10;;;5.00;;
7110;SDS011;3597;42.650;23.386;2022-07-26T08:46:37;5.15;;;5.05;;
7110;SDS011;3597;42.650;23.386;2022-07-26T08:49:05;4.90;;;4.80;;
7110;SDS011;3597;42.650;23.386;2022-07-26T08:51:31;5.72;;;5.63;;
7110;SDS011;3597;42.650;23.386;2022-07-26T08:53:58;5.40;;;5.30;;
7110;SDS011;3597;42.650;23.386;2022-07-26T08:56:24;6.35;;;6.15;;
7110;SDS011;3597;42.650;23.386;2022-07-26T08:58:50;6.90;;;6.60;;
7110;SDS011;3597;42.650;23.386;2022-07-26T09:01:15;6.25;;;6.15;;
7110;SDS011;3597;42.650;23.386;2022-07-26T09:03:41;6.20;;;6.10;;
7110;SDS011;3597;42.650;23.386;2022-07-26T09:06:15;6.38;;;6.28;;
7110;SDS011;3597;42.650;23.386;2022-07-26T09:08:43;6.28;;;6.18;;
7110;SDS011;3597;42.650;23.386;2022-07-26T09:11:26;5.70;;;5.60;;
7110;SDS011;3597;42.650;23.386;2022-07-26T09:13:54;5.25;;;5.15;;
7110;SDS011;3597;42.650;23.386;2022-07-26T09:16:20;6.35;;;6.20;;
7110;SDS011;3597;42.650;23.386;2022-07-26T09:18:46;6.07;;;5.97;;
7110;SDS011;3597;42.650;23.386;2022-07-26T09:24:00;6.30;;;6.20;;
7110;SDS011;3597;42.650;23.386;2022-07-26T09:26:25;6.38;;;6.28;;
7110;SDS011;3597;42.650;23.386;2022-07-26T09:29:10;6.35;;;6.25;;
7110;SDS011;3597;42.650;23.386;2022-07-26T09:31:37;6.13;;;6.03;;
7110;SDS011;3597;42.650;23.386;2022-07-26T09:34:03;5.90;;;5.80;;
7110;SDS011;3597;42.650;23.386;2022-07-26T09:36:30;5.22;;;5.13;;
7110;SDS011;3597;42.650;23.386;2022-07-26T09:38:59;5.10;;;5.00;;
7110;SDS011;3597;42.650;23.386;2022-07-26T09:43:52;5.72;;;5.63;;
7110;SDS011;3597;42.650;23.386;2022-07-26T09:46:18;5.50;;;5.40;;
7110;SDS011;3597;42.650;23.386;2022-07-26T09:48:44;4.65;;;4.55;;
7110;SDS011;3597;42.650;23.386;2022-07-26T09:51:10;4.60;;;4.50;;
7110;SDS011;3597;42.650;23.386;2022-07-26T09:56:04;5.25;;;5.07;;
7110;SDS011;3597;42.650;23.386;2022-07-26T09:58:30;4.40;;;4.30;;
7110;SDS011;3597;42.650;23.386;2022-07-26T10:00:55;4.40;;;4.30;;
7110;SDS011;3597;42.650;23.386;2022-07-26T10:03:21;4.22;;;4.18;;
7110;SDS011;3597;42.650;23.386;2022-07-26T10:05:46;5.07;;;4.97;;
7110;SDS011;3597;42.650;23.386;2022-07-26T10:08:12;5.32;;;5.22;;
7110;SDS011;3597;42.650;23.386;2022-07-26T10:10:42;5.75;;;5.65;;
7110;SDS011;3597;42.650;23.386;2022-07-26T10:13:10;5.88;;;5.78;;
7110;SDS011;3597;42.650;23.386;2022-07-26T10:15:41;5.13;;;5.03;;
7110;SDS011;3597;42.650;23.386;2022-07-26T10:18:07;4.90;;;4.80;;
7110;SDS011;3597;42.650;23.386;2022-07-26T10:20:44;5.30;;;5.20;;
7110;SDS011;3597;42.650;23.386;2022-07-26T10:26:00;5.13;;;5.03;;
7110;SDS011;3597;42.650;23.386;2022-07-26T10:28:27;4.10;;;4.00;;
7110;SDS011;3597;42.650;23.386;2022-07-26T10:33:45;5.40;;;5.30;;
7110;SDS011;3597;42.650;23.386;2022-07-26T10:36:25;5.18;;;5.07;;
7110;SDS011;3597;42.650;23.386;2022-07-26T10:38:59;6.13;;;6.03;;
7110;SDS011;3597;42.650;23.386;2022-07-26T10:44:11;5.65;;;5.55;;
7110;SDS011;3597;42.650;23.386;2022-07-26T10:46:57;5.43;;;5.32;;
7110;SDS011;3597;42.650;23.386;2022-07-26T10:54:46;7.00;;;6.90;;
7110;SDS011;3597;42.650;23.386;2022-07-26T10:59:53;6.50;;;6.40;;
7110;SDS011;3597;42.650;23.386;2022-07-26T11:02:22;7.18;;;6.97;;
7110;SDS011;3597;42.650;23.386;2022-07-26T11:08:11;6.13;;;6.03;;
7110;SDS011;3597;42.650;23.386;2022-07-26T11:13:08;7.00;;;6.80;;
7110;SDS011;3597;42.650;23.386;2022-07-26T11:15:35;6.30;;;6.20;;
7110;SDS011;3597;42.650;23.386;2022-07-26T11:18:05;6.53;;;6.32;;
7110;SDS011;3597;42.650;23.386;2022-07-26T11:20:34;7.40;;;7.30;;
7110;SDS011;3597;42.650;23.386;2022-07-26T11:22:59;8.02;;;7.82;;
7110;SDS011;3597;42.650;23.386;2022-07-26T11:25:25;8.00;;;7.80;;
7110;SDS011;3597;42.650;23.386;2022-07-26T11:28:00;7.18;;;7.07;;
7110;SDS011;3597;42.650;23.386;2022-07-26T11:30:27;7.88;;;7.70;;
7110;SDS011;3597;42.650;23.386;2022-07-26T11:32:53;8.27;;;8.07;;
7110;SDS011;3597;42.650;23.386;2022-07-26T11:35:18;8.80;;;8.60;;
7110;SDS011;3597;42.650;23.386;2022-07-26T11:37:56;10.48;;;10.07;;
7110;SDS011;3597;42.650;23.386;2022-07-26T11:43:10;11.75;;;11.45;;
7110;SDS011;3597;42.650;23.386;2022-07-26T11:45:35;15.07;;;14.57;;
7110;SDS011;3597;42.650;23.386;2022-07-26T11:48:01;15.30;;;14.70;;
7110;SDS011;3597;42.650;23.386;2022-07-26T11:50:27;13.23;;;12.82;;
7110;SDS011;3597;42.650;23.386;2022-07-26T11:52:52;11.20;;;10.73;;
7110;SDS011;3597;42.650;23.386;2022-07-26T11:55:25;10.15;;;9.95;;
7110;SDS011;3597;42.650;23.386;2022-07-26T11:57:54;9.02;;;8.82;;
7110;SDS011;3597;42.650;23.386;2022-07-26T12:00:20;8.38;;;8.18;;
7110;SDS011;3597;42.650;23.386;2022-07-26T12:02:47;7.90;;;7.70;;
7110;SDS011;3597;42.650;23.386;2022-07-26T12:05:22;9.07;;;8.88;;
7110;SDS011;3597;42.650;23.386;2022-07-26T12:08:05;8.82;;;8.63;;
7110;SDS011;3597;42.650;23.386;2022-07-26T12:10:32;9.48;;;9.27;;
7110;SDS011;3597;42.650;23.386;2022-07-26T12:15:49;9.18;;;8.98;;
7110;SDS011;3597;42.650;23.386;2022-07-26T12:18:28;9.32;;;9.13;;
7110;SDS011;3597;42.650;23.386;2022-07-26T12:21:04;9.73;;;9.43;;
7110;SDS011;3597;42.650;23.386;2022-07-26T12:26:23;8.02;;;7.82;;
7110;SDS011;3597;42.650;23.386;2022-07-26T12:28:49;7.72;;;7.63;;
7110;SDS011;3597;42.650;23.386;2022-07-26T12:31:21;7.50;;;7.30;;
7110;SDS011;3597;42.650;23.386;2022-07-26T12:33:54;6.68;;;6.57;;
7110;SDS011;3597;42.650;23.386;2022-07-26T12:36:19;6.47;;;6.38;;
7110;SDS011;3597;42.650;23.386;2022-07-26T12:38:45;5.75;;;5.65;;
7110;SDS011;3597;42.650;23.386;2022-07-26T12:41:11;4.90;;;4.80;;
7110;SDS011;3597;42.650;23.386;2022-07-26T12:43:39;4.93;;;4.80;;
7110;SDS011;3597;42.650;23.386;2022-07-26T12:46:05;4.40;;;4.30;;
7110;SDS011;3597;42.650;23.386;2022-07-26T12:48:30;4.22;;;4.22;;
7110;SDS011;3597;42.650;23.386;2022-07-26T12:50:56;4.45;;;4.35;;
7110;SDS011;3597;42.650;23.386;2022-07-26T12:53:22;4.63;;;4.53;;
7110;SDS011;3597;42.650;23.386;2022-07-26T12:55:47;4.03;;;3.92;;
7110;SDS011;3597;42.650;23.386;2022-07-26T12:58:12;3.95;;;3.95;;
7110;SDS011;3597;42.650;23.386;2022-07-26T13:00:39;4.35;;;4.25;;
7110;SDS011;3597;42.650;23.386;2022-07-26T13:03:04;4.57;;;4.47;;
7110;SDS011;3597;42.650;23.386;2022-07-26T13:05:30;4.20;;;4.20;;
7110;SDS011;3597;42.650;23.386;2022-07-26T13:07:55;3.95;;;3.90;;
7110;SDS011;3597;42.650;23.386;2022-07-26T13:10:21;4.15;;;4.15;;
7110;SDS011;3597;42.650;23.386;2022-07-26T13:12:47;3.80;;;3.80;;
7110;SDS011;3597;42.650;23.386;2022-07-26T13:15:12;4.55;;;4.45;;
7110;SDS011;3597;42.650;23.386;2022-07-26T13:17:37;4.00;;;4.00;;
7110;SDS011;3597;42.650;23.386;2022-07-26T13:20:03;6.18;;;6.07;;
7110;SDS011;3597;42.650;23.386;2022-07-26T13:22:29;7.85;;;7.65;;
7110;SDS011;3597;42.650;23.386;2022-07-26T13:24:54;7.88;;;7.68;;
7110;SDS011;3597;42.650;23.386;2022-07-26T13:27:19;7.03;;;6.93;;
7110;SDS011;3597;42.650;23.386;2022-07-26T13:29:45;7.63;;;7.43;;
7110;SDS011;3597;42.650;23.386;2022-07-26T13:32:10;7.18;;;6.97;;
7110;SDS011;3597;42.650;23.386;2022-07-26T13:34:36;7.03;;;6.93;;
7110;SDS011;3597;42.650;23.386;2022-07-26T13:37:01;7.28;;;7.18;;
7110;SDS011;3597;42.650;23.386;2022-07-26T13:39:27;7.40;;;7.20;;
7110;SDS011;3597;42.650;23.386;2022-07-26T13:41:52;7.20;;;7.00;;
7110;SDS011;3597;42.650;23.386;2022-07-26T13:44:18;7.60;;;7.50;;
7110;SDS011;3597;42.650;23.386;2022-07-26T13:46:44;7.90;;;7.70;;
7110;SDS011;3597;42.650;23.386;2022-07-26T13:49:09;6.95;;;6.75;;
7110;SDS011;3597;42.650;23.386;2022-07-26T13:51:36;6.90;;;6.80;;
7110;SDS011;3597;42.650;23.386;2022-07-26T13:54:21;7.03;;;6.82;;
7110;SDS011;3597;42.650;23.386;2022-07-26T13:56:51;7.25;;;7.05;;
7110;SDS011;3597;42.650;23.386;2022-07-26T13:59:17;7.38;;;7.28;;
7110;SDS011;3597;42.650;23.386;2022-07-26T14:01:43;7.05;;;6.85;;
7110;SDS011;3597;42.650;23.386;2022-07-26T14:04:08;6.80;;;6.70;;
7110;SDS011;3597;42.650;23.386;2022-07-26T14:06:34;6.43;;;6.32;;
7110;SDS011;3597;42.650;23.386;2022-07-26T14:09:00;6.82;;;6.70;;
7110;SDS011;3597;42.650;23.386;2022-07-26T14:11:28;8.00;;;7.90;;
7110;SDS011;3597;42.650;23.386;2022-07-26T14:13:53;8.73;;;8.52;;
7110;SDS011;3597;42.650;23.386;2022-07-26T14:16:19;9.57;;;9.38;;
7110;SDS011;3597;42.650;23.386;2022-07-26T14:18:44;10.50;;;10.20;;
7110;SDS011;3597;42.650;23.386;2022-07-26T14:21:10;9.30;;;8.90;;
7110;SDS011;3597;42.650;23.386;2022-07-26T14:23:35;9.30;;;9.02;;
7110;SDS011;3597;42.650;23.386;2022-07-26T14:26:01;9.35;;;9.15;;
7110;SDS011;3597;42.650;23.386;2022-07-26T14:28:26;9.38;;;9.18;;
7110;SDS011;3597;42.650;23.386;2022-07-26T14:30:51;9.38;;;9.10;;
7110;SDS011;3597;42.650;23.386;2022-07-26T14:33:17;8.85;;;8.65;;
7110;SDS011;3597;42.650;23.386;2022-07-26T14:35:42;8.40;;;8.20;;
7110;SDS011;3597;42.650;23.386;2022-07-26T14:38:08;8.73;;;8.43;;
7110;SDS011;3597;42.650;23.386;2022-07-26T14:40:34;8.75;;;8.55;;
7110;SDS011;3597;42.650;23.386;2022-07-26T14:42:59;8.05;;;7.85;;
7110;SDS011;3597;42.650;23.386;2022-07-26T14:45:26;8.88;;;8.68;;
7110;SDS011;3597;42.650;23.386;2022-07-26T14:47:51;8.23;;;8.02;;
7110;SDS011;3597;42.650;23.386;2022-07-26T14:50:17;8.25;;;8.05;;
7110;SDS011;3597;42.650;23.386;2022-07-26T14:52:44;9.07;;;8.88;;
7110;SDS011;3597;42.650;23.386;2022-07-26T14:55:11;9.63;;;9.43;;
7110;SDS011;3597;42.650;23.386;2022-07-26T14:57:37;9.50;;;9.30;;
7110;SDS011;3597;42.650;23.386;2022-07-26T15:00:03;9.70;;;9.45;;
7110;SDS011;3597;42.650;23.386;2022-07-26T15:02:29;8.77;;;8.57;;
7110;SDS011;3597;42.650;23.386;2022-07-26T15:04:55;9.20;;;9.00;;
7110;SDS011;3597;42.650;23.386;2022-07-26T15:07:20;8.15;;;7.95;;
7110;SDS011;3597;42.650;23.386;2022-07-26T15:09:46;8.70;;;8.50;;
7110;SDS011;3597;42.650;23.386;2022-07-26T15:12:11;9.13;;;8.93;;
7110;SDS011;3597;42.650;23.386;2022-07-26T15:14:37;9.35;;;9.15;;
7110;SDS011;3597;42.650;23.386;2022-07-26T15:17:02;9.65;;;9.40;;
7110;SDS011;3597;42.650;23.386;2022-07-26T15:19:27;9.32;;;9.02;;
7110;SDS011;3597;42.650;23.386;2022-07-26T15:21:53;9.60;;;9.40;;
7110;SDS011;3597;42.650;23.386;2022-07-26T15:24:19;9.02;;;8.82;;
7110;SDS011;3597;42.650;23.386;2022-07-26T15:26:44;9.25;;;9.05;;